Time;durP1;ratioP1;P1;durP2;ratioP2;P2;SDS_P1;SDS_P2;PMS_P1;PMS_P2;Temp;Humidity;BMP_temperature;BMP_pressure;BME280_temperature;BME280_humidity;BME280_pressure;Samples;Min_cycle;Max_cycle;Signal;HPM_P1;HPM_P2
2022/07/10 00:01:56;;;;;;;5.72;1.70;;;;;;;;;;5080685;28;20036;-66
2022/07/10 00:04:22;;;;;;;6.82;1.52;;;;;;;;;;5072614;28;20044;-66
2022/07/10 00:06:48;;;;;;;6.88;1.45;;;;;;;;;;5066179;28;20047;-66
2022/07/10 00:09:15;;;;;;;6.70;1.25;;;;;;;;;;5069535;28;20482;-66
2022/07/10 00:11:41;;;;;;;5.85;1.15;;;;;;;;;;5073047;28;20040;-66
2022/07/10 00:14:07;;;;;;;8.10;1.40;;;;;;;;;;5075389;28;20051;-66
2022/07/10 00:16:33;;;;;;;8.77;1.48;;;;;;;;;;5079220;28;20475;-66
2022/07/10 00:18:59;;;;;;;7.75;1.30;;;;;;;;;;5071080;28;20043;-66
2022/07/10 00:21:25;;;;;;;9.70;1.40;;;;;;;;;;5064477;28;20044;-66
2022/07/10 00:23:51;;;;;;;7.15;1.52;;;;;;;;;;5072112;28;20059;-66
2022/07/10 00:26:17;;;;;;;10.85;2.03;;;;;;;;;;5072807;28;20060;-66
2022/07/10 00:28:44;;;;;;;5.82;1.58;;;;;;;;;;5074556;28;20032;-66
2022/07/10 00:31:10;;;;;;;5.88;1.30;;;;;;;;;;5074040;28;20375;-66
2022/07/10 00:33:37;;;;;;;7.07;1.88;;;;;;;;;;5071140;28;20040;-66
2022/07/10 00:36:04;;;;;;;6.40;1.27;;;;;;;;;;5074919;28;20044;-66
2022/07/10 00:38:30;;;;;;;6.82;1.40;;;;;;;;;;5072872;28;20127;-66
2022/07/10 00:40:57;;;;;;;7.72;1.75;;;;;;;;;;5071983;28;20068;-66
2022/07/10 00:43:23;;;;;;;10.43;1.50;;;;;;;;;;5072306;28;20036;-66
2022/07/10 00:45:49;;;;;;;8.10;1.67;;;;;;;;;;5081467;28;20040;-66
2022/07/10 00:48:15;;;;;;;8.55;1.77;;;;;;;;;;5062185;28;20522;-66
2022/07/10 00:50:43;;;;;;;10.57;1.70;;;;;;;;;;5070291;28;20488;-66
2022/07/10 00:53:09;;;;;;;9.20;2.08;;;;;;;;;;5072452;28;20040;-66
2022/07/10 00:55:36;;;;;;;9.18;1.38;;;;;;;;;;5072319;28;20048;-66
2022/07/10 00:58:03;;;;;;;8.52;1.63;;;;;;;;;;5071721;28;20043;-66
2022/07/10 01:00:29;;;;;;;6.57;1.45;;;;;;;;;;5075136;28;20573;-66
2022/07/10 01:02:55;;;;;;;10.90;1.85;;;;;;;;;;5070883;28;20364;-66
2022/07/10 01:05:21;;;;;;;5.38;1.30;;;;;;;;;;5074318;28;20047;-66
2022/07/10 01:07:47;;;;;;;5.47;1.45;;;;;;;;;;5072379;28;20040;-66
2022/07/10 01:10:13;;;;;;;7.43;1.60;;;;;;;;;;5071349;28;20096;-66
2022/07/10 01:12:39;;;;;;;7.47;1.73;;;;;;;;;;5071651;28;20040;-66
2022/07/10 01:15:05;;;;;;;8.55;1.50;;;;;;;;;;5071580;28;20045;-66
2022/07/10 01:17:32;;;;;;;7.20;1.58;;;;;;;;;;5067626;28;20040;-66
2022/07/10 01:19:58;;;;;;;7.47;1.27;;;;;;;;;;5066756;28;20044;-66
2022/07/10 01:22:24;;;;;;;5.97;1.50;;;;;;;;;;5062997;28;20414;-66
2022/07/10 01:24:50;;;;;;;6.30;1.58;;;;;;;;;;5070065;28;20051;-66
2022/07/10 01:27:16;;;;;;;6.60;1.60;;;;;;;;;;5071828;28;20132;-66
2022/07/10 01:29:42;;;;;;;7.35;1.67;;;;;;;;;;5070751;28;20120;-66
2022/07/10 01:32:09;;;;;;;6.72;1.67;;;;;;;;;;5068600;28;20036;-66
2022/07/10 01:34:35;;;;;;;6.85;1.63;;;;;;;;;;5062948;28;20119;-66
2022/07/10 01:37:01;;;;;;;9.07;1.98;;;;;;;;;;5064502;28;20115;-66
2022/07/10 01:39:27;;;;;;;7.88;1.92;;;;;;;;;;5060920;28;20116;-66
2022/07/10 01:41:53;;;;;;;8.52;2.15;;;;;;;;;;5071518;28;20040;-66
2022/07/10 01:44:19;;;;;;;6.13;1.40;;;;;;;;;;5071351;28;20048;-66
2022/07/10 01:46:46;;;;;;;7.00;1.48;;;;;;;;;;5069555;28;20033;-66
2022/07/10 01:49:12;;;;;;;8.35;1.83;;;;;;;;;;5070726;28;20089;-66
2022/07/10 01:51:38;;;;;;;5.00;1.33;;;;;;;;;;5071204;28;20075;-66
2022/07/10 01:54:04;;;;;;;10.82;1.73;;;;;;;;;;5070820;28;20047;-66
2022/07/10 01:56:30;;;;;;;7.45;1.30;;;;;;;;;;5063034;28;20045;-66
2022/07/10 01:58:56;;;;;;;3.88;1.30;;;;;;;;;;5068284;28;20064;-66
2022/07/10 02:01:22;;;;;;;6.82;1.83;;;;;;;;;;5064837;28;20044;-66
2022/07/10 02:06:33;;;;;;;7.28;1.65;;;;;;;;;;5069427;28;20048;-66
2022/07/10 02:08:59;;;;;;;6.43;1.65;;;;;;;;;;5069979;28;20032;-66
2022/07/10 02:11:25;;;;;;;6.00;1.88;;;;;;;;;;5070673;28;20379;-66
2022/07/10 02:13:51;;;;;;;8.20;1.48;;;;;;;;;;5072246;28;20083;-66
2022/07/10 02:16:17;;;;;;;8.18;1.70;;;;;;;;;;5074755;28;20497;-66
2022/07/10 02:18:43;;;;;;;10.40;1.52;;;;;;;;;;5074588;28;20044;-66
2022/07/10 02:21:09;;;;;;;7.00;1.27;;;;;;;;;;5073846;28;20106;-66
2022/07/10 02:23:36;;;;;;;5.60;1.45;;;;;;;;;;5066503;28;20036;-66
2022/07/10 02:26:02;;;;;;;8.23;1.50;;;;;;;;;;5066197;28;20401;-66
2022/07/10 02:28:28;;;;;;;11.25;1.75;;;;;;;;;;5064209;28;20045;-66
2022/07/10 02:30:54;;;;;;;10.38;1.63;;;;;;;;;;5094872;28;20051;-66
2022/07/10 02:33:20;;;;;;;9.45;1.85;;;;;;;;;;5095068;28;20413;-66
2022/07/10 02:35:46;;;;;;;7.32;1.63;;;;;;;;;;5077300;28;20229;-66
2022/07/10 02:38:12;;;;;;;5.25;1.95;;;;;;;;;;5073476;28;20036;-66
2022/07/10 02:40:38;;;;;;;8.55;1.48;;;;;;;;;;5068939;28;20047;-66
2022/07/10 02:43:04;;;;;;;4.85;1.42;;;;;;;;;;5062676;28;20473;-66
2022/07/10 02:45:30;;;;;;;4.78;1.40;;;;;;;;;;5075648;28;20041;-66
2022/07/10 02:47:56;;;;;;;7.38;2.00;;;;;;;;;;5066549;28;20124;-66
2022/07/10 02:50:22;;;;;;;7.72;1.95;;;;;;;;;;5073795;28;20058;-66
2022/07/10 02:52:48;;;;;;;6.40;1.65;;;;;;;;;;5069762;28;20066;-66
2022/07/10 02:55:14;;;;;;;7.65;1.58;;;;;;;;;;5065129;28;20037;-66
2022/07/10 02:57:40;;;;;;;8.40;1.58;;;;;;;;;;5067367;28;20076;-66
2022/07/10 03:00:07;;;;;;;6.75;1.48;;;;;;;;;;5073060;28;20059;-66
2022/07/10 03:02:33;;;;;;;9.10;1.92;;;;;;;;;;5065709;28;20090;-66
2022/07/10 03:04:59;;;;;;;9.02;1.85;;;;;;;;;;5073075;28;20033;-66
2022/07/10 03:07:25;;;;;;;6.15;1.48;;;;;;;;;;5072178;28;20037;-66
2022/07/10 03:09:51;;;;;;;7.38;1.40;;;;;;;;;;5080386;28;20040;-66
2022/07/10 03:12:17;;;;;;;4.65;1.30;;;;;;;;;;5063257;28;20067;-66
2022/07/10 03:14:43;;;;;;;5.53;1.48;;;;;;;;;;5070427;28;20486;-66
2022/07/10 03:17:09;;;;;;;5.38;1.50;;;;;;;;;;5077092;28;20035;-66
2022/07/10 03:19:35;;;;;;;7.03;1.50;;;;;;;;;;5073693;28;20033;-65
2022/07/10 03:22:01;;;;;;;8.82;1.73;;;;;;;;;;5056717;28;20029;-66
2022/07/10 03:24:27;;;;;;;6.25;1.40;;;;;;;;;;5061692;28;20481;-66
2022/07/10 03:26:53;;;;;;;7.45;1.38;;;;;;;;;;5065230;28;20048;-65
2022/07/10 03:29:19;;;;;;;7.45;1.70;;;;;;;;;;5066826;28;20040;-66
2022/07/10 03:31:45;;;;;;;6.60;1.40;;;;;;;;;;5083204;28;20041;-66
2022/07/10 03:34:11;;;;;;;5.20;1.60;;;;;;;;;;5083286;28;20037;-66
2022/07/10 03:36:37;;;;;;;4.35;1.40;;;;;;;;;;5068811;28;20533;-66
2022/07/10 03:39:03;;;;;;;8.57;1.67;;;;;;;;;;5071873;28;20282;-65
2022/07/10 03:41:29;;;;;;;8.25;1.80;;;;;;;;;;5075871;28;20067;-66
2022/07/10 03:43:55;;;;;;;5.38;1.13;;;;;;;;;;5070187;28;20040;-65
2022/07/10 03:46:21;;;;;;;8.30;1.48;;;;;;;;;;5068054;28;20086;-66
2022/07/10 03:48:47;;;;;;;9.10;1.50;;;;;;;;;;5059710;28;20302;-66
2022/07/10 03:51:13;;;;;;;9.23;1.45;;;;;;;;;;5065219;28;20506;-66
2022/07/10 03:53:39;;;;;;;6.63;1.50;;;;;;;;;;5072297;28;20040;-66
2022/07/10 03:56:05;;;;;;;4.65;1.40;;;;;;;;;;5062654;28;20098;-66
2022/07/10 03:58:31;;;;;;;8.68;1.40;;;;;;;;;;5064277;28;20041;-66
2022/07/10 04:00:57;;;;;;;9.63;1.60;;;;;;;;;;5064998;28;20103;-66
2022/07/10 04:03:23;;;;;;;5.93;1.17;;;;;;;;;;5059382;28;20158;-65
2022/07/10 04:05:49;;;;;;;11.57;1.67;;;;;;;;;;5059695;28;20051;-66
2022/07/10 04:08:15;;;;;;;5.35;1.25;;;;;;;;;;5060386;28;20398;-66
2022/07/10 04:10:41;;;;;;;8.98;1.33;;;;;;;;;;5068849;28;20048;-66
2022/07/10 04:13:07;;;;;;;8.38;1.67;;;;;;;;;;5071993;28;20044;-66
2022/07/10 04:15:33;;;;;;;6.50;1.42;;;;;;;;;;5071040;28;20072;-66
2022/07/10 04:17:59;;;;;;;5.40;1.30;;;;;;;;;;5057340;28;20072;-66
2022/07/10 04:20:25;;;;;;;8.10;1.40;;;;;;;;;;5068707;28;20040;-66
2022/07/10 04:22:51;;;;;;;4.55;1.30;;;;;;;;;;5071032;28;21003;-66
2022/07/10 04:25:17;;;;;;;6.25;1.38;;;;;;;;;;5068785;28;20040;-66
2022/07/10 04:27:43;;;;;;;7.15;1.50;;;;;;;;;;5059458;28;20037;-66
2022/07/10 04:30:10;;;;;;;7.28;1.42;;;;;;;;;;5067497;28;20514;-65
2022/07/10 04:32:36;;;;;;;9.65;1.70;;;;;;;;;;5063613;28;20043;-66
2022/07/10 04:35:03;;;;;;;8.95;1.60;;;;;;;;;;5067444;28;20379;-65
2022/07/10 04:37:29;;;;;;;9.23;1.15;;;;;;;;;;5067097;28;20050;-66
2022/07/10 04:39:55;;;;;;;6.20;1.50;;;;;;;;;;5065965;28;20033;-65
2022/07/10 04:42:21;;;;;;;7.00;1.77;;;;;;;;;;5065211;28;20036;-66
2022/07/10 04:44:47;;;;;;;5.15;1.40;;;;;;;;;;5064630;28;20045;-66
2022/07/10 04:47:13;;;;;;;9.88;1.50;;;;;;;;;;5060759;28;20040;-66
2022/07/10 04:49:39;;;;;;;3.72;1.08;;;;;;;;;;5068618;28;20044;-66
2022/07/10 04:52:05;;;;;;;7.63;1.15;;;;;;;;;;5069052;28;20040;-66
2022/07/10 04:54:32;;;;;;;7.05;1.27;;;;;;;;;;5066625;28;20036;-66
2022/07/10 04:56:58;;;;;;;8.23;1.50;;;;;;;;;;5057378;28;20116;-65
2022/07/10 04:59:24;;;;;;;9.38;1.70;;;;;;;;;;5058911;28;20556;-66
2022/07/10 05:01:50;;;;;;;7.60;1.15;;;;;;;;;;5100128;22;20036;-62
2022/07/10 05:04:16;;;;;;;4.50;1.58;;;;;;;;;;5077298;28;20039;-62
2022/07/10 05:06:42;;;;;;;7.82;1.15;;;;;;;;;;5089448;28;20517;-62
2022/07/10 05:09:08;;;;;;;6.40;1.75;;;;;;;;;;5085625;28;20032;-62
2022/07/10 05:11:34;;;;;;;10.05;1.40;;;;;;;;;;5091623;28;20028;-62
2022/07/10 05:14:00;;;;;;;6.18;1.55;;;;;;;;;;5087031;28;20040;-61
2022/07/10 05:16:26;;;;;;;8.85;1.30;;;;;;;;;;5083031;28;20104;-62
2022/07/10 05:18:52;;;;;;;5.60;1.60;;;;;;;;;;5085386;28;20628;-62
2022/07/10 05:21:18;;;;;;;5.93;1.10;;;;;;;;;;5087646;28;20047;-62
2022/07/10 05:23:44;;;;;;;6.68;1.40;;;;;;;;;;5086011;28;20032;-62
2022/07/10 05:26:10;;;;;;;7.20;1.23;;;;;;;;;;5085216;28;20417;-62
2022/07/10 05:28:36;;;;;;;4.88;1.52;;;;;;;;;;5090080;28;20115;-62
2022/07/10 05:31:02;;;;;;;7.05;1.35;;;;;;;;;;5087845;28;20043;-62
2022/07/10 05:33:28;;;;;;;5.68;1.20;;;;;;;;;;5088461;28;20040;-62
2022/07/10 05:35:54;;;;;;;5.15;1.42;;;;;;;;;;5087533;28;20087;-62
2022/07/10 05:38:20;;;;;;;7.50;1.45;;;;;;;;;;5081322;28;20041;-62
2022/07/10 05:40:46;;;;;;;9.23;1.60;;;;;;;;;;5090091;28;20579;-62
2022/07/10 05:43:12;;;;;;;6.95;1.58;;;;;;;;;;5075115;28;20043;-62
2022/07/10 05:45:38;;;;;;;7.85;1.55;;;;;;;;;;5078120;28;20406;-62
2022/07/10 05:48:05;;;;;;;6.38;1.60;;;;;;;;;;5089277;28;20465;-62
2022/07/10 05:50:31;;;;;;;7.07;1.35;;;;;;;;;;5068989;28;20036;-62
2022/07/10 05:52:57;;;;;;;7.03;1.77;;;;;;;;;;5094471;28;20044;-62
2022/07/10 05:55:23;;;;;;;8.45;2.00;;;;;;;;;;5093243;28;20047;-62
2022/07/10 05:57:50;;;;;;;8.82;1.67;;;;;;;;;;5087359;28;20545;-61
2022/07/10 06:00:16;;;;;;;6.22;1.48;;;;;;;;;;5089901;28;20505;-62
2022/07/10 06:02:42;;;;;;;5.32;1.40;;;;;;;;;;5091996;28;20423;-62
2022/07/10 06:05:09;;;;;;;9.45;2.05;;;;;;;;;;5084719;28;20032;-63
2022/07/10 06:07:35;;;;;;;9.85;2.05;;;;;;;;;;5083992;28;20452;-62
2022/07/10 06:10:02;;;;;;;9.50;2.10;;;;;;;;;;5086951;28;20397;-63
2022/07/10 06:12:28;;;;;;;8.55;2.00;;;;;;;;;;5081910;28;20048;-62
2022/07/10 06:14:54;;;;;;;6.68;1.77;;;;;;;;;;5088626;28;20037;-63
2022/07/10 06:17:20;;;;;;;7.45;1.50;;;;;;;;;;5089140;28;20036;-62
2022/07/10 06:19:46;;;;;;;9.43;1.88;;;;;;;;;;5083758;28;20033;-62
2022/07/10 06:22:30;;;;;;;10.68;2.08;;;;;;;;;;5082870;28;20040;-63
2022/07/10 06:24:57;;;;;;;10.02;2.00;;;;;;;;;;5088556;28;20543;-62
2022/07/10 06:27:23;;;;;;;10.27;2.20;;;;;;;;;;5082105;28;20397;-63
2022/07/10 06:29:49;;;;;;;8.50;2.17;;;;;;;;;;5092277;28;20032;-63
2022/07/10 06:32:15;;;;;;;8.38;1.77;;;;;;;;;;5090717;28;20061;-62
2022/07/10 06:34:41;;;;;;;10.13;2.00;;;;;;;;;;5090512;28;20402;-62
2022/07/10 06:37:07;;;;;;;8.02;2.03;;;;;;;;;;5091869;28;20068;-63
2022/07/10 06:39:36;;;;;;;12.77;2.75;;;;;;;;;;5088472;28;20477;-62
2022/07/10 06:42:03;;;;;;;7.63;1.80;;;;;;;;;;5089458;28;20032;-63
2022/07/10 06:44:29;;;;;;;10.25;2.38;;;;;;;;;;5088558;28;20065;-62
2022/07/10 06:49:41;;;;;;;8.75;2.30;;;;;;;;;;5079982;28;20040;-62
2022/07/10 06:52:07;;;;;;;7.57;2.13;;;;;;;;;;5083434;28;20071;-62
2022/07/10 06:54:33;;;;;;;9.30;2.63;;;;;;;;;;5088566;28;20119;-63
2022/07/10 06:56:59;;;;;;;16.60;2.70;;;;;;;;;;5088105;28;20035;-63
2022/07/10 06:59:25;;;;;;;10.15;1.98;;;;;;;;;;5090620;28;20044;-63
2022/07/10 07:01:51;;;;;;;8.90;2.00;;;;;;;;;;5089103;28;20119;-64
2022/07/10 07:04:17;;;;;;;9.88;2.38;;;;;;;;;;5086375;28;20492;-63
2022/07/10 07:06:43;;;;;;;7.38;2.40;;;;;;;;;;5088650;28;20067;-62
2022/07/10 07:09:09;;;;;;;13.65;2.10;;;;;;;;;;5093531;28;20051;-62
2022/07/10 07:11:35;;;;;;;11.50;2.10;;;;;;;;;;5092539;28;20081;-63
2022/07/10 07:14:01;;;;;;;10.02;1.80;;;;;;;;;;5094081;28;20052;-63
2022/07/10 07:16:38;;;;;;;6.93;1.67;;;;;;;;;;5094595;28;20089;-63
2022/07/10 07:19:05;;;;;;;9.43;2.17;;;;;;;;;;5093708;28;20377;-63
2022/07/10 07:24:20;;;;;;;6.88;1.98;;;;;;;;;;5091048;28;20433;-62
2022/07/10 07:26:49;;;;;;;10.10;1.92;;;;;;;;;;5094019;28;20127;-63
2022/07/10 07:29:15;;;;;;;9.00;2.00;;;;;;;;;;5093292;28;20044;-63
2022/07/10 07:31:41;;;;;;;7.28;1.80;;;;;;;;;;5094150;28;20043;-63
2022/07/10 07:34:07;;;;;;;6.82;1.88;;;;;;;;;;5091326;28;20043;-63
2022/07/10 07:36:33;;;;;;;8.70;1.80;;;;;;;;;;5081576;28;20037;-63
2022/07/10 07:38:59;;;;;;;7.13;1.70;;;;;;;;;;5084955;28;20046;-63
2022/07/10 07:41:25;;;;;;;6.10;1.50;;;;;;;;;;5094309;28;20066;-63
2022/07/10 07:43:52;;;;;;;9.55;1.98;;;;;;;;;;5093904;28;20036;-63
2022/07/10 07:46:18;;;;;;;3.47;1.30;;;;;;;;;;5093433;28;20044;-63
2022/07/10 07:48:44;;;;;;;5.32;1.00;;;;;;;;;;5087016;28;20459;-62
2022/07/10 07:51:10;;;;;;;8.00;1.40;;;;;;;;;;5081463;28;20182;-63
2022/07/10 07:53:36;;;;;;;6.28;1.38;;;;;;;;;;5088919;28;20036;-63
2022/07/10 07:56:02;;;;;;;6.28;0.93;;;;;;;;;;5092137;28;20399;-63
2022/07/10 07:58:28;;;;;;;4.30;1.10;;;;;;;;;;5093199;28;20036;-63
2022/07/10 08:00:56;;;;;;;5.63;1.35;;;;;;;;;;5093027;28;20032;-63
2022/07/10 08:03:22;;;;;;;4.72;1.10;;;;;;;;;;5083575;28;20489;-62
2022/07/10 08:05:49;;;;;;;5.45;1.13;;;;;;;;;;5077854;28;20084;-63
2022/07/10 08:08:15;;;;;;;3.25;0.90;;;;;;;;;;5092972;28;20075;-63
2022/07/10 08:10:41;;;;;;;2.72;0.90;;;;;;;;;;5092327;28;20094;-63
2022/07/10 08:13:07;;;;;;;1.98;0.80;;;;;;;;;;5093169;28;20048;-63
2022/07/10 08:15:34;;;;;;;2.78;0.70;;;;;;;;;;5091983;28;20451;-63
2022/07/10 08:18:03;;;;;;;4.13;1.13;;;;;;;;;;5085423;28;20101;-63
2022/07/10 08:20:30;;;;;;;2.15;0.70;;;;;;;;;;5091062;28;20489;-63
2022/07/10 08:22:56;;;;;;;5.30;0.90;;;;;;;;;;5093172;28;20040;-63
2022/07/10 08:25:22;;;;;;;5.25;1.00;;;;;;;;;;5093309;28;20401;-63
2022/07/10 08:27:48;;;;;;;4.18;1.23;;;;;;;;;;5092625;28;20036;-62
2022/07/10 08:30:15;;;;;;;4.72;0.80;;;;;;;;;;5091242;28;20629;-62
2022/07/10 08:32:41;;;;;;;3.10;1.15;;;;;;;;;;5084306;28;20036;-63
2022/07/10 08:35:07;;;;;;;4.65;1.05;;;;;;;;;;5091361;28;20040;-62
2022/07/10 08:37:40;;;;;;;6.25;1.05;;;;;;;;;;5093177;28;20040;-62
2022/07/10 08:40:09;;;;;;;4.68;1.05;;;;;;;;;;5092210;28;20046;-62
2022/07/10 08:42:35;;;;;;;4.57;1.10;;;;;;;;;;5092403;28;20406;-62
2022/07/10 08:45:01;;;;;;;4.70;1.20;;;;;;;;;;5091302;28;20036;-62
2022/07/10 08:47:30;;;;;;;3.35;0.90;;;;;;;;;;5083878;28;20051;-62
2022/07/10 08:49:57;;;;;;;2.30;1.20;;;;;;;;;;5090449;28;20051;-62
2022/07/10 08:52:54;;;;;;;3.95;0.90;;;;;;;;;;5089697;28;20054;-63
2022/07/10 08:55:21;;;;;;;2.55;0.90;;;;;;;;;;5064932;28;20063;-63
2022/07/10 08:57:48;;;;;;;4.72;1.02;;;;;;;;;;5090748;28;20256;-63
2022/07/10 09:00:14;;;;;;;1.98;0.90;;;;;;;;;;5082593;28;20054;-63
2022/07/10 09:02:40;;;;;;;4.57;1.00;;;;;;;;;;5071490;28;20045;-64
2022/07/10 09:05:08;;;;;;;4.03;1.10;;;;;;;;;;5072056;28;20041;-64
2022/07/10 09:07:37;;;;;;;4.57;1.27;;;;;;;;;;5076129;28;20040;-64
2022/07/10 09:10:10;;;;;;;3.50;1.00;;;;;;;;;;5090898;28;20042;-63
2022/07/10 09:12:50;;;;;;;2.50;1.08;;;;;;;;;;5089933;28;20043;-64
2022/07/10 09:15:17;;;;;;;3.42;1.65;;;;;;;;;;5092486;28;20083;-63
2022/07/10 09:17:53;;;;;;;2.05;1.10;;;;;;;;;;5091840;28;20047;-63
2022/07/10 09:20:25;;;;;;;4.38;1.20;;;;;;;;;;5089882;28;20397;-63
2022/07/10 09:22:52;;;;;;;2.88;1.08;;;;;;;;;;5091675;28;20081;-63
2022/07/10 09:25:18;;;;;;;3.67;1.00;;;;;;;;;;5088070;28;20087;-63
2022/07/10 09:27:54;;;;;;;4.25;1.38;;;;;;;;;;5087217;28;20107;-63
2022/07/10 09:30:37;;;;;;;3.55;1.27;;;;;;;;;;5070846;28;20563;-64
2022/07/10 09:33:22;;;;;;;4.80;1.27;;;;;;;;;;5071371;28;20436;-63
2022/07/10 09:36:04;;;;;;;3.72;1.33;;;;;;;;;;5075233;28;20044;-63
2022/07/10 09:38:37;;;;;;;4.40;1.40;;;;;;;;;;5090564;28;20469;-63
2022/07/10 09:41:12;;;;;;;2.30;1.30;;;;;;;;;;5082483;28;20085;-63
2022/07/10 09:43:47;;;;;;;4.00;1.00;;;;;;;;;;5071443;28;20151;-63
2022/07/10 09:46:13;;;;;;;2.60;1.05;;;;;;;;;;5071299;28;20089;-63
2022/07/10 09:48:39;;;;;;;3.03;1.45;;;;;;;;;;5071440;28;20116;-63
2022/07/10 09:51:09;;;;;;;2.45;0.80;;;;;;;;;;5084578;28;20051;-63
2022/07/10 09:53:44;;;;;;;3.10;0.90;;;;;;;;;;5086179;28;20052;-63
2022/07/10 09:56:12;;;;;;;2.17;1.23;;;;;;;;;;5079092;28;20040;-63
2022/07/10 09:58:38;;;;;;;1.75;0.80;;;;;;;;;;5070500;28;20044;-63
2022/07/10 10:01:05;;;;;;;2.90;1.02;;;;;;;;;;5071002;28;20049;-63
2022/07/10 10:03:37;;;;;;;1.60;0.80;;;;;;;;;;5071475;28;20044;-63
2022/07/10 10:06:16;;;;;;;1.42;0.80;;;;;;;;;;5091501;28;20044;-63
2022/07/10 10:08:52;;;;;;;2.63;0.80;;;;;;;;;;5083849;28;20107;-63
2022/07/10 10:11:23;;;;;;;2.30;1.00;;;;;;;;;;5079570;28;20046;-63
2022/07/10 10:13:50;;;;;;;1.63;1.00;;;;;;;;;;5071588;28;20047;-63
2022/07/10 10:16:16;;;;;;;2.58;0.90;;;;;;;;;;5076158;28;20040;-63
2022/07/10 10:21:30;;;;;;;6.05;1.58;;;;;;;;;;5090612;28;20123;-63
2022/07/10 10:23:56;;;;;;;3.55;1.25;;;;;;;;;;5081944;28;20117;-63
2022/07/10 10:26:25;;;;;;;2.22;0.90;;;;;;;;;;5080150;28;20620;-63
2022/07/10 10:28:56;;;;;;;3.47;1.40;;;;;;;;;;5070944;28;20060;-63
2022/07/10 10:31:22;;;;;;;;;;;;;;;;;;5071095;28;20048;-63
2022/07/10 10:33:51;;;;;;;5.03;1.30;;;;;;;;;;5089081;28;20270;-63
2022/07/10 10:36:44;;;;;;;3.60;1.20;;;;;;;;;;5092769;28;20048;-63
2022/07/10 10:39:13;;;;;;;3.90;1.55;;;;;;;;;;5081745;28;20036;-63
2022/07/10 10:41:39;;;;;;;4.80;1.60;;;;;;;;;;5074224;28;20501;-62
2022/07/10 10:44:09;;;;;;;3.00;1.48;;;;;;;;;;5074553;28;20041;-64
2022/07/10 10:46:36;;;;;;;4.63;1.30;;;;;;;;;;5073257;28;20126;-63
2022/07/10 10:49:08;;;;;;;1.85;1.15;;;;;;;;;;5087855;28;20186;-64
2022/07/10 10:51:53;;;;;;;4.07;1.27;;;;;;;;;;5085347;28;20504;-64
2022/07/10 10:54:19;;;;;;;4.03;1.70;;;;;;;;;;5076610;28;20043;-64
2022/07/10 10:56:45;;;;;;;1.85;1.58;;;;;;;;;;5074644;28;20044;-63
2022/07/10 10:59:31;;;;;;;6.70;2.20;;;;;;;;;;5073870;28;20093;-63
2022/07/10 11:02:15;;;;;;;3.58;1.90;;;;;;;;;;5119312;22;20032;-66
2022/07/10 11:04:41;;;;;;;4.38;1.60;;;;;;;;;;5134050;27;20050;-67
2022/07/10 11:07:07;;;;;;;3.97;1.90;;;;;;;;;;5135343;27;20035;-67
2022/07/10 11:09:34;;;;;;;4.40;1.75;;;;;;;;;;5114786;28;20407;-66
2022/07/10 11:12:06;;;;;;;6.22;2.17;;;;;;;;;;5102312;28;20130;-67
2022/07/10 11:14:37;;;;;;;5.80;1.90;;;;;;;;;;5094008;28;20040;-67
2022/07/10 11:17:04;;;;;;;3.40;1.77;;;;;;;;;;5094134;28;20051;-66
2022/07/10 11:19:31;;;;;;;6.88;1.90;;;;;;;;;;5104304;28;20088;-66
2022/07/10 11:22:12;;;;;;;9.77;2.13;;;;;;;;;;5105901;28;20032;-67
2022/07/10 11:24:38;;;;;;;;;;;;;;;;;;5115042;28;20039;-67
2022/07/10 11:27:16;;;;;;;6.68;2.10;;;;;;;;;;5099249;28;19984;-67
2022/07/10 11:29:42;;;;;;;8.02;2.10;;;;;;;;;;5093405;28;20173;-67
2022/07/10 11:32:08;;;;;;;6.43;1.92;;;;;;;;;;5093565;28;20039;-67
2022/07/10 11:34:37;;;;;;;4.47;1.73;;;;;;;;;;5107657;28;20486;-67
2022/07/10 11:37:28;;;;;;;6.93;2.10;;;;;;;;;;5109800;28;20072;-67
2022/07/10 11:40:08;;;;;;;4.38;1.90;;;;;;;;;;5113470;28;20047;-67
2022/07/10 11:42:48;;;;;;;4.70;1.80;;;;;;;;;;5113763;28;20503;-67
2022/07/10 11:45:24;;;;;;;4.60;1.52;;;;;;;;;;5114109;28;20124;-67
2022/07/10 11:47:50;;;;;;;6.90;1.85;;;;;;;;;;5111891;28;20512;-66
2022/07/10 11:50:16;;;;;;;3.53;1.70;;;;;;;;;;5105179;28;20390;-67
2022/07/10 11:52:42;;;;;;;4.82;1.67;;;;;;;;;;5113584;28;20036;-66
2022/07/10 11:55:18;;;;;;;3.00;1.50;;;;;;;;;;5113464;28;20104;-67
2022/07/10 11:57:48;;;;;;;7.47;1.90;;;;;;;;;;5113820;28;20035;-67
2022/07/10 12:00:27;;;;;;;6.38;2.00;;;;;;;;;;5113626;28;20040;-67
2022/07/10 12:02:54;;;;;;;3.70;1.60;;;;;;;;;;5106423;28;20035;-67
2022/07/10 12:05:34;;;;;;;5.72;1.65;;;;;;;;;;5110696;28;20122;-67
2022/07/10 12:08:00;;;;;;;5.60;1.90;;;;;;;;;;5113356;28;20047;-67
2022/07/10 12:10:29;;;;;;;5.25;1.30;;;;;;;;;;5113515;28;20147;-67
2022/07/10 12:13:10;;;;;;;2.75;1.35;;;;;;;;;;5113319;28;20039;-67
2022/07/10 12:15:37;;;;;;;4.47;1.45;;;;;;;;;;5113501;28;20075;-67
2022/07/10 12:18:07;;;;;;;5.15;1.40;;;;;;;;;;5104696;28;20051;-67
2022/07/10 12:20:34;;;;;;;7.93;1.77;;;;;;;;;;5112278;28;20046;-67
2022/07/10 12:23:00;;;;;;;4.32;1.42;;;;;;;;;;5112137;28;20051;-67
2022/07/10 12:25:26;;;;;;;4.85;1.95;;;;;;;;;;5113651;28;20440;-67
2022/07/10 12:27:56;;;;;;;5.45;2.38;;;;;;;;;;5112614;28;20451;-67
2022/07/10 12:30:23;;;;;;;4.78;1.98;;;;;;;;;;5111985;28;20115;-67
2022/07/10 12:32:49;;;;;;;5.82;1.67;;;;;;;;;;5104033;28;20035;-67
2022/07/10 12:35:15;;;;;;;6.30;1.70;;;;;;;;;;5113260;28;20050;-67
2022/07/10 12:37:48;;;;;;;5.53;1.90;;;;;;;;;;5112890;28;20118;-67
2022/07/10 12:40:30;;;;;;;6.93;1.85;;;;;;;;;;5112814;28;20044;-67
2022/07/10 12:43:06;;;;;;;3.85;1.80;;;;;;;;;;5112461;28;20040;-67
2022/07/10 12:45:32;;;;;;;5.10;2.25;;;;;;;;;;5108359;28;20556;-67
2022/07/10 12:47:58;;;;;;;4.47;1.95;;;;;;;;;;5107149;28;20032;-67
2022/07/10 12:50:26;;;;;;;5.10;1.70;;;;;;;;;;5111882;28;20127;-67
2022/07/10 12:53:07;;;;;;;3.85;1.70;;;;;;;;;;5103989;28;20092;-67
2022/07/10 12:55:37;;;;;;;5.07;1.70;;;;;;;;;;5113030;28;20040;-67
2022/07/10 12:58:11;;;;;;;6.13;1.70;;;;;;;;;;5111170;28;20044;-67
2022/07/10 13:00:44;;;;;;;7.13;2.35;;;;;;;;;;5107445;28;20063;-67
2022/07/10 13:03:10;;;;;;;5.88;2.03;;;;;;;;;;5108375;28;20039;-67
2022/07/10 13:05:38;;;;;;;6.82;2.65;;;;;;;;;;5112602;28;20041;-67
2022/07/10 13:08:06;;;;;;;7.00;2.20;;;;;;;;;;5112460;28;20098;-67
2022/07/10 13:10:33;;;;;;;7.05;2.10;;;;;;;;;;5111304;28;20031;-67
2022/07/10 13:13:00;;;;;;;8.02;2.28;;;;;;;;;;5103372;28;20047;-67
2022/07/10 13:15:26;;;;;;;6.30;2.08;;;;;;;;;;5112575;28;20040;-67
2022/07/10 13:17:52;;;;;;;6.75;2.33;;;;;;;;;;5111599;28;20046;-67
2022/07/10 13:20:18;;;;;;;4.88;2.25;;;;;;;;;;5111902;28;20039;-66
2022/07/10 13:22:44;;;;;;;6.78;2.08;;;;;;;;;;5112268;28;20047;-67
2022/07/10 13:25:10;;;;;;;5.65;2.20;;;;;;;;;;5102898;28;20031;-67
2022/07/10 13:27:36;;;;;;;7.75;2.05;;;;;;;;;;5111100;28;20063;-67
2022/07/10 13:30:03;;;;;;;5.80;2.28;;;;;;;;;;5111294;28;20040;-66
2022/07/10 13:32:29;;;;;;;6.53;2.40;;;;;;;;;;5111271;28;20043;-66
2022/07/10 13:34:55;;;;;;;3.55;1.90;;;;;;;;;;5111633;28;20397;-67
2022/07/10 13:37:22;;;;;;;8.40;2.42;;;;;;;;;;5111835;28;20512;-67
2022/07/10 13:39:48;;;;;;;3.22;1.70;;;;;;;;;;5111238;28;20401;-66
2022/07/10 13:42:14;;;;;;;4.97;1.92;;;;;;;;;;5103347;28;20111;-66
2022/07/10 13:44:40;;;;;;;5.53;1.90;;;;;;;;;;5111928;28;20119;-67
2022/07/10 13:47:06;;;;;;;3.88;1.90;;;;;;;;;;5111474;28;20477;-67
2022/07/10 13:49:32;;;;;;;4.97;1.90;;;;;;;;;;5110737;28;20400;-66
2022/07/10 13:51:58;;;;;;;4.63;1.42;;;;;;;;;;5103054;28;20039;-67
2022/07/10 13:54:24;;;;;;;3.72;1.83;;;;;;;;;;5111942;28;20047;-67
2022/07/10 13:56:50;;;;;;;4.43;1.52;;;;;;;;;;5112148;28;20042;-66
2022/07/10 13:59:16;;;;;;;5.22;1.80;;;;;;;;;;5111990;28;20089;-67
2022/07/10 14:01:42;;;;;;;6.88;1.80;;;;;;;;;;5111364;28;20028;-66
2022/07/10 14:04:08;;;;;;;4.63;1.73;;;;;;;;;;5110568;28;20067;-66
2022/07/10 14:06:34;;;;;;;5.70;1.88;;;;;;;;;;5103625;28;20063;-67
2022/07/10 14:09:00;;;;;;;4.97;1.33;;;;;;;;;;5110528;28;20493;-67
2022/07/10 14:11:27;;;;;;;3.15;1.42;;;;;;;;;;5107363;28;20071;-67
2022/07/10 14:13:53;;;;;;;3.42;1.40;;;;;;;;;;5115147;28;20043;-66
2022/07/10 14:16:19;;;;;;;4.75;1.60;;;;;;;;;;5115475;28;20131;-66
2022/07/10 14:18:45;;;;;;;6.03;1.48;;;;;;;;;;5115079;28;20122;-66
2022/07/10 14:21:13;;;;;;;4.05;1.45;;;;;;;;;;5106170;28;20486;-66
2022/07/10 14:23:41;;;;;;;2.55;1.40;;;;;;;;;;5115408;28;20489;-66
2022/07/10 14:26:08;;;;;;;3.83;1.75;;;;;;;;;;5108218;28;20072;-66
2022/07/10 14:28:34;;;;;;;3.53;1.77;;;;;;;;;;5102814;28;20075;-66
2022/07/10 14:31:03;;;;;;;3.53;1.67;;;;;;;;;;5108599;28;20065;-66
2022/07/10 14:33:29;;;;;;;4.57;1.83;;;;;;;;;;5114308;28;20523;-66
2022/07/10 14:35:55;;;;;;;3.28;1.42;;;;;;;;;;5112922;28;20043;-67
2022/07/10 14:38:21;;;;;;;5.50;1.63;;;;;;;;;;5106800;28;20393;-66
2022/07/10 14:40:47;;;;;;;4.90;1.40;;;;;;;;;;5115197;28;20036;-66
2022/07/10 14:43:13;;;;;;;4.32;1.50;;;;;;;;;;5114141;28;20043;-67
2022/07/10 14:45:39;;;;;;;4.45;1.63;;;;;;;;;;5115368;28;20075;-67
2022/07/10 14:48:05;;;;;;;4.45;1.75;;;;;;;;;;5115542;28;20078;-67
2022/07/10 14:50:32;;;;;;;6.18;1.83;;;;;;;;;;5105376;28;20511;-66
2022/07/10 14:52:58;;;;;;;4.57;1.48;;;;;;;;;;5099299;28;20128;-66
2022/07/10 14:55:24;;;;;;;3.80;1.48;;;;;;;;;;5094822;28;20036;-66
2022/07/10 14:57:50;;;;;;;2.50;1.25;;;;;;;;;;5106637;28;20120;-66